createdAt,value
2022-09-11T00:01:24.784Z,16.59
2022-09-11T00:03:28.079Z,16.62
2022-09-11T00:05:31.254Z,16.65
2022-09-11T00:07:34.379Z,16.64
2022-09-11T00:09:37.588Z,16.65
2022-09-11T00:11:42.323Z,16.63
2022-09-11T00:13:49.416Z,16.63
2022-09-11T00:15:53.130Z,16.60
2022-09-11T00:17:56.964Z,16.56
2022-09-11T00:20:01.141Z,16.53
2022-09-11T00:22:04.481Z,16.54
2022-09-11T00:24:08.545Z,16.52
2022-09-11T00:26:11.941Z,16.48
2022-09-11T00:28:16.632Z,16.51
2022-09-11T00:30:21.158Z,16.51
2022-09-11T00:32:24.418Z,16.52
2022-09-11T00:34:27.371Z,16.54
2022-09-11T00:36:32.377Z,16.55
2022-09-11T00:38:37.332Z,16.59
2022-09-11T00:40:46.228Z,16.64
2022-09-11T00:42:53.473Z,16.65
2022-09-11T00:45:02.615Z,16.67
2022-09-11T00:47:10.104Z,16.68
2022-09-11T00:49:19.662Z,16.72
2022-09-11T00:51:25.924Z,16.75
2022-09-11T00:53:31.277Z,16.75
2022-09-11T00:55:35.842Z,16.78
2022-09-11T00:57:44.080Z,16.81
2022-09-11T00:59:48.636Z,16.82
2022-09-11T01:01:51.752Z,16.80
2022-09-11T01:03:57.059Z,16.82
2022-09-11T01:06:00.980Z,16.86
2022-09-11T01:08:06.440Z,16.87
2022-09-11T01:10:10.540Z,16.89
2022-09-11T01:12:18.483Z,16.90
2022-09-11T01:14:34.518Z,16.91
2022-09-11T01:16:41.073Z,16.95
2022-09-11T01:18:49.828Z,16.97
2022-09-11T01:21:05.908Z,16.97
2022-09-11T01:23:26.901Z,16.98
2022-09-11T01:25:36.915Z,16.97
2022-09-11T01:27:47.673Z,16.98
2022-09-11T01:29:55.254Z,16.97
2022-09-11T01:32:15.884Z,16.93
2022-09-11T01:34:22.906Z,16.95
2022-09-11T01:36:30.445Z,16.95
2022-09-11T01:38:35.774Z,16.97
2022-09-11T01:40:44.452Z,16.99
2022-09-11T01:42:52.645Z,17.00
2022-09-11T01:44:57.705Z,17.00
2022-09-11T01:47:03.160Z,17.01
2022-09-11T01:49:10.113Z,17.02
2022-09-11T01:51:16.694Z,17.02
2022-09-11T01:53:22.007Z,17.04
2022-09-11T01:55:29.540Z,17.04
2022-09-11T01:57:36.631Z,17.05
2022-09-11T01:59:45.870Z,17.06
2022-09-11T02:01:52.547Z,17.07
2022-09-11T02:03:57.913Z,17.08
2022-09-11T02:06:06.599Z,17.08
2022-09-11T02:08:23.437Z,17.09
2022-09-11T02:10:31.180Z,17.10
2022-09-11T02:12:40.846Z,17.10
2022-09-11T02:14:48.729Z,17.11
2022-09-11T02:16:53.412Z,17.13
2022-09-11T02:19:01.028Z,17.12
2022-09-11T02:21:05.176Z,17.11
2022-09-11T02:23:08.942Z,17.12
2022-09-11T02:25:13.707Z,17.13
2022-09-11T02:27:19.066Z,17.12
2022-09-11T02:29:22.740Z,17.10
2022-09-11T02:31:28.092Z,17.10
2022-09-11T02:33:35.859Z,17.11
2022-09-11T02:35:45.518Z,17.12
2022-09-11T02:37:52.845Z,17.12
2022-09-11T02:40:33.315Z,17.14
2022-09-11T02:42:47.785Z,17.13
2022-09-11T02:44:56.318Z,17.11
2022-09-11T02:47:08.820Z,17.11
2022-09-11T02:49:20.689Z,17.12
2022-09-11T02:51:29.358Z,17.12
2022-09-11T02:53:36.445Z,17.13
2022-09-11T02:55:50.032Z,17.14
2022-09-11T02:57:58.840Z,17.14
2022-09-11T03:00:05.912Z,17.13
2022-09-11T03:02:14.840Z,17.15
2022-09-11T03:04:20.315Z,17.15
2022-09-11T03:06:27.373Z,17.13
2022-09-11T03:08:31.539Z,17.14
2022-09-11T03:10:35.536Z,17.15
2022-09-11T03:12:38.819Z,17.15
2022-09-11T03:14:41.780Z,17.14
2022-09-11T03:16:45.857Z,17.14
2022-09-11T03:18:50.589Z,17.11
2022-09-11T03:20:53.541Z,17.12
2022-09-11T03:22:56.623Z,17.12
2022-09-11T03:24:59.685Z,17.12
2022-09-11T03:27:06.863Z,17.11
2022-09-11T03:29:10.658Z,17.12
2022-09-11T03:31:13.945Z,17.13
2022-09-11T03:33:17.216Z,17.13
2022-09-11T03:35:21.834Z,17.14
2022-09-11T03:37:26.379Z,17.13
2022-09-11T03:39:31.760Z,17.13
2022-09-11T03:41:36.087Z,17.12
2022-09-11T03:43:40.814Z,17.12
2022-09-11T03:45:44.664Z,17.10
2022-09-11T03:47:48.282Z,17.13
2022-09-11T03:49:52.350Z,17.13
2022-09-11T03:51:56.995Z,17.12
2022-09-11T03:54:00.753Z,17.14
2022-09-11T03:56:06.398Z,17.13
2022-09-11T03:58:15.644Z,17.12
2022-09-11T04:00:20.094Z,17.11
2022-09-11T04:02:29.718Z,17.10
2022-09-11T04:04:32.944Z,17.11
2022-09-11T04:06:36.007Z,17.14
2022-09-11T04:08:42.132Z,17.16
2022-09-11T04:10:46.449Z,17.18
2022-09-11T04:12:49.693Z,17.19
2022-09-11T04:14:57.798Z,17.19
2022-09-11T04:17:02.094Z,17.20
2022-09-11T04:19:05.505Z,17.19
2022-09-11T04:21:11.279Z,17.20
2022-09-11T04:23:15.257Z,17.19
2022-09-11T04:25:21.422Z,17.18
2022-09-11T04:27:25.326Z,17.19
2022-09-11T04:29:28.619Z,17.18
2022-09-11T04:31:32.708Z,17.18
2022-09-11T04:33:36.201Z,17.18
2022-09-11T04:35:40.340Z,17.19
2022-09-11T04:37:43.522Z,17.21
2022-09-11T04:39:47.240Z,17.23
2022-09-11T04:41:52.959Z,17.22
2022-09-11T04:44:01.114Z,17.22
2022-09-11T04:46:08.483Z,17.22
2022-09-11T04:48:11.543Z,17.21
2022-09-11T04:50:14.645Z,17.19
2022-09-11T04:52:19.483Z,17.20
2022-09-11T04:54:23.532Z,17.22
2022-09-11T04:56:29.465Z,17.20
2022-09-11T04:58:34.439Z,17.19
2022-09-11T05:00:37.648Z,17.17
2022-09-11T05:02:41.332Z,17.21
2022-09-11T05:04:45.003Z,17.22
2022-09-11T05:06:48.576Z,17.24
2022-09-11T05:08:52.950Z,17.26
2022-09-11T05:10:57.538Z,17.26
2022-09-11T05:13:00.507Z,17.27
2022-09-11T05:15:05.450Z,17.28
2022-09-11T05:17:08.483Z,17.31
2022-09-11T05:19:16.039Z,17.32
2022-09-11T05:21:22.405Z,17.33
2022-09-11T05:23:25.431Z,17.33
2022-09-11T05:25:31.756Z,17.33
2022-09-11T05:27:35.352Z,17.32
2022-09-11T05:29:39.141Z,17.35
2022-09-11T05:31:49.639Z,17.35
2022-09-11T05:33:55.838Z,17.36
2022-09-11T05:36:05.075Z,17.38
2022-09-11T05:38:10.814Z,17.37
2022-09-11T05:40:14.110Z,17.35
2022-09-11T05:42:17.567Z,17.29
2022-09-11T05:44:24.883Z,17.25
2022-09-11T05:46:27.979Z,17.20
2022-09-11T05:48:38.524Z,17.23
2022-09-11T05:50:41.944Z,17.24
2022-09-11T05:52:45.006Z,17.26
2022-09-11T05:54:49.928Z,17.29
2022-09-11T05:56:52.849Z,17.29
2022-09-11T05:58:59.871Z,17.29
2022-09-11T06:01:11.241Z,17.30
2022-09-11T06:03:16.228Z,17.32
2022-09-11T06:05:21.076Z,17.34
2022-09-11T06:07:24.531Z,17.34
2022-09-11T06:09:27.559Z,17.33
2022-09-11T06:11:30.908Z,17.32
2022-09-11T06:13:35.704Z,17.34
2022-09-11T06:15:46.936Z,17.37
2022-09-11T06:17:50.965Z,17.38
2022-09-11T06:19:55.078Z,17.38
2022-09-11T06:22:00.184Z,17.41
2022-09-11T06:24:08.194Z,17.43
2022-09-11T06:26:13.781Z,17.46
2022-09-11T06:28:18.542Z,17.48
2022-09-11T06:30:21.986Z,17.52
2022-09-11T06:32:25.041Z,17.56
2022-09-11T06:34:28.398Z,17.58
2022-09-11T06:36:34.383Z,17.58
2022-09-11T06:38:44.340Z,17.59
2022-09-11T06:40:50.412Z,17.63
2022-09-11T06:42:54.228Z,17.64
2022-09-11T06:45:00.914Z,17.65
2022-09-11T06:47:05.888Z,17.65
2022-09-11T06:49:11.801Z,17.63
2022-09-11T06:51:35.923Z,17.65
2022-09-11T06:53:40.862Z,17.67
2022-09-11T06:55:48.950Z,17.69
2022-09-11T06:57:53.950Z,17.72
2022-09-11T07:00:01.440Z,17.74
2022-09-11T07:02:09.935Z,17.76
2022-09-11T07:04:13.872Z,17.75
2022-09-11T07:06:20.006Z,17.74
2022-09-11T07:08:25.074Z,17.73
2022-09-11T07:10:28.776Z,17.74
2022-09-11T07:12:38.683Z,17.74
2022-09-11T07:14:42.349Z,17.76
2022-09-11T07:16:55.260Z,17.78
2022-09-11T07:18:59.189Z,17.80
2022-09-11T07:21:06.297Z,17.82
2022-09-11T07:23:10.998Z,17.85
2022-09-11T07:25:15.194Z,17.88
2022-09-11T07:27:19.547Z,17.89
2022-09-11T07:29:26.159Z,17.92
2022-09-11T07:31:31.029Z,17.96
2022-09-11T07:33:34.114Z,17.99
2022-09-11T07:35:40.363Z,17.97
2022-09-11T07:37:46.718Z,17.96
2022-09-11T07:39:53.408Z,17.99
2022-09-11T07:41:59.405Z,18.04
2022-09-11T07:44:06.580Z,18.06
2022-09-11T07:46:11.631Z,18.07
2022-09-11T07:48:15.666Z,18.08
2022-09-11T07:50:18.831Z,18.11
2022-09-11T07:52:21.969Z,18.13
2022-09-11T07:54:29.093Z,18.17
2022-09-11T07:56:36.593Z,18.21
2022-09-11T07:58:43.100Z,18.25
2022-09-11T08:00:47.284Z,18.26
2022-09-11T08:02:56.750Z,18.26
2022-09-11T08:05:07.083Z,18.26
2022-09-11T08:07:10.913Z,18.24
2022-09-11T08:09:15.999Z,18.24
2022-09-11T08:11:26.532Z,18.26
2022-09-11T08:13:29.916Z,18.29
2022-09-11T08:15:33.120Z,18.32
2022-09-11T08:17:37.527Z,18.35
2022-09-11T08:19:41.944Z,18.42
2022-09-11T08:21:45.107Z,18.55
2022-09-11T08:23:48.983Z,18.69
2022-09-11T08:25:54.389Z,18.92
2022-09-11T08:27:57.803Z,19.10
2022-09-11T08:30:01.449Z,19.21
2022-09-11T08:32:05.016Z,19.33
2022-09-11T08:34:10.663Z,19.37
2022-09-11T08:36:16.802Z,19.42
2022-09-11T08:38:22.509Z,19.44
2022-09-11T08:40:25.863Z,19.50
2022-09-11T08:42:31.066Z,19.50
2022-09-11T08:44:41.064Z,19.42
2022-09-11T08:47:00.931Z,19.39
2022-09-11T08:49:08.051Z,19.49
2022-09-11T08:51:16.172Z,19.67
2022-09-11T08:53:20.742Z,19.88
2022-09-11T08:55:32.104Z,20.28
2022-09-11T08:57:43.475Z,20.65
2022-09-11T09:00:08.350Z,21.06
2022-09-11T09:02:39.085Z,21.53
2022-09-11T09:04:53.857Z,21.54
2022-09-11T09:07:05.084Z,21.29
2022-09-11T09:09:19.080Z,20.93
2022-09-11T09:11:30.332Z,20.65
2022-09-11T09:13:48.075Z,20.44
2022-09-11T09:16:01.945Z,20.28
2022-09-11T09:18:10.469Z,20.19
2022-09-11T09:20:21.102Z,20.16
2022-09-11T09:22:28.502Z,20.35
2022-09-11T09:24:37.182Z,20.78
2022-09-11T09:26:41.398Z,21.18
2022-09-11T09:28:47.666Z,21.50
2022-09-11T09:30:54.147Z,21.66
2022-09-11T09:33:03.284Z,21.61
2022-09-11T09:35:15.351Z,21.68
2022-09-11T09:37:21.687Z,21.60
2022-09-11T09:39:26.315Z,21.46
2022-09-11T09:42:02.398Z,21.31
2022-09-11T09:44:10.871Z,21.19
2022-09-11T09:46:20.046Z,20.97
2022-09-11T09:48:25.042Z,20.93
2022-09-11T09:50:31.038Z,20.92
2022-09-11T09:52:36.241Z,20.90
2022-09-11T09:54:40.675Z,20.84
2022-09-11T09:56:44.561Z,20.78
2022-09-11T09:58:56.722Z,20.74
2022-09-11T10:00:59.942Z,20.68
2022-09-11T10:03:19.098Z,20.60
2022-09-11T10:05:27.016Z,20.53
2022-09-11T10:07:32.452Z,20.46
2022-09-11T10:09:35.962Z,20.43
2022-09-11T10:11:40.844Z,20.41
2022-09-11T10:13:45.735Z,20.40
2022-09-11T10:15:50.274Z,20.34
2022-09-11T10:17:53.754Z,20.34
2022-09-11T10:19:58.004Z,20.54
2022-09-11T10:22:22.210Z,20.93
2022-09-11T10:24:26.184Z,21.26
2022-09-11T10:26:34.023Z,21.55
2022-09-11T10:28:38.641Z,21.83
2022-09-11T10:30:42.750Z,22.02
2022-09-11T10:32:45.760Z,21.96
2022-09-11T10:34:48.994Z,21.81
2022-09-11T10:36:55.673Z,21.80
2022-09-11T10:39:00.339Z,21.85
2022-09-11T10:41:08.918Z,21.91
2022-09-11T10:43:24.354Z,22.03
2022-09-11T10:45:28.798Z,22.27
2022-09-11T10:47:33.544Z,22.55
2022-09-11T10:49:36.870Z,22.76
2022-09-11T10:51:46.774Z,22.92
2022-09-11T10:54:05.150Z,23.04
2022-09-11T10:56:09.168Z,23.19
2022-09-11T10:58:15.098Z,23.28
2022-09-11T11:00:21.229Z,23.37
2022-09-11T11:02:31.675Z,23.47
2022-09-11T11:04:35.145Z,23.43
2022-09-11T11:06:46.998Z,23.44
2022-09-11T11:09:01.677Z,23.27
2022-09-11T11:11:14.853Z,23.24
2022-09-11T11:13:31.220Z,23.33
2022-09-11T11:15:43.326Z,23.36
2022-09-11T11:17:54.144Z,23.37
2022-09-11T11:20:06.989Z,23.44
2022-09-11T11:22:18.010Z,23.48
2022-09-11T11:24:33.291Z,23.58
2022-09-11T11:26:47.068Z,23.69
2022-09-11T11:29:01.888Z,23.72
2022-09-11T11:31:15.808Z,23.76
2022-09-11T11:33:46.971Z,23.81
2022-09-11T11:35:59.062Z,23.70
2022-09-11T11:38:04.859Z,23.69
2022-09-11T11:40:15.225Z,23.77
2022-09-11T11:42:23.691Z,23.88
2022-09-11T11:44:34.384Z,23.96
2022-09-11T11:46:41.166Z,23.91
2022-09-11T11:48:50.467Z,23.74
2022-09-11T11:50:55.248Z,23.69
2022-09-11T11:53:04.042Z,23.65
2022-09-11T11:55:16.896Z,23.52
2022-09-11T11:57:22.243Z,23.49
2022-09-11T11:59:32.732Z,23.53
2022-09-11T12:01:39.917Z,23.52
2022-09-11T12:03:48.220Z,23.54
2022-09-11T12:05:51.207Z,23.63
2022-09-11T12:07:54.689Z,23.77
2022-09-11T12:09:59.813Z,23.90
2022-09-11T12:12:06.697Z,23.99
2022-09-11T12:14:26.588Z,24.07
2022-09-11T12:16:32.055Z,24.13
2022-09-11T12:18:35.206Z,24.09
2022-09-11T12:20:42.657Z,24.01
2022-09-11T12:22:46.870Z,23.92
2022-09-11T12:24:58.641Z,23.81
2022-09-11T12:27:34.428Z,23.73
2022-09-11T12:29:54.832Z,23.70
2022-09-11T12:32:19.674Z,23.65
2022-09-11T12:34:25.757Z,23.57
2022-09-11T12:36:38.227Z,23.52
2022-09-11T12:38:44.876Z,23.47
2022-09-11T12:40:53.199Z,23.37
2022-09-11T12:42:58.640Z,23.19
2022-09-11T12:45:04.659Z,23.11
2022-09-11T12:47:13.337Z,23.06
2022-09-11T12:49:22.484Z,23.00
2022-09-11T12:51:27.340Z,22.95
2022-09-11T12:53:33.571Z,22.85
2022-09-11T12:55:40.559Z,22.74
2022-09-11T12:57:43.758Z,22.67
2022-09-11T12:59:52.469Z,22.61
2022-09-11T13:01:56.388Z,22.51
2022-09-11T13:04:02.144Z,22.38
2022-09-11T13:06:07.928Z,22.11
2022-09-11T13:08:16.533Z,22.02
2022-09-11T13:10:33.446Z,21.86
2022-09-11T13:12:55.836Z,21.76
2022-09-11T13:14:59.477Z,21.73
2022-09-11T13:17:03.466Z,21.71
2022-09-11T13:19:13.895Z,21.68
2022-09-11T13:21:22.112Z,21.69
2022-09-11T13:23:28.073Z,21.71
2022-09-11T13:25:33.181Z,21.65
2022-09-11T13:27:37.527Z,21.68
2022-09-11T13:29:42.860Z,21.76
2022-09-11T13:31:45.944Z,21.80
2022-09-11T13:33:50.582Z,21.85
2022-09-11T13:35:54.292Z,21.95
2022-09-11T13:37:59.462Z,22.07
2022-09-11T13:40:04.301Z,22.13
2022-09-11T13:42:16.239Z,22.23
2022-09-11T13:44:41.591Z,22.25
2022-09-11T13:46:51.759Z,22.37
2022-09-11T13:49:00.250Z,22.45
2022-09-11T13:51:05.040Z,22.49
2022-09-11T13:53:09.323Z,22.58
2022-09-11T13:55:19.135Z,22.72
2022-09-11T13:57:25.050Z,22.88
2022-09-11T13:59:36.351Z,23.02
2022-09-11T14:01:53.863Z,23.13
2022-09-11T14:03:57.325Z,23.23
2022-09-11T14:06:01.789Z,23.27
2022-09-11T14:08:07.559Z,23.28
2022-09-11T14:10:20.211Z,23.32
2022-09-11T14:12:24.893Z,23.27
2022-09-11T14:14:29.105Z,23.21
2022-09-11T14:16:33.420Z,23.20
2022-09-11T14:18:41.319Z,23.19
2022-09-11T14:20:46.351Z,23.19
2022-09-11T14:22:54.253Z,23.20
2022-09-11T14:25:02.892Z,23.21
2022-09-11T14:27:36.495Z,23.27
2022-09-11T14:29:39.588Z,23.25
2022-09-11T14:31:44.216Z,23.20
2022-09-11T14:33:47.380Z,23.17
2022-09-11T14:35:50.888Z,23.20
2022-09-11T14:37:53.902Z,23.23
2022-09-11T14:39:59.080Z,23.23
2022-09-11T14:42:02.492Z,23.23
2022-09-11T14:44:06.864Z,23.27
2022-09-11T14:46:09.958Z,23.30
2022-09-11T14:48:14.360Z,23.32
2022-09-11T14:50:17.382Z,23.33
2022-09-11T14:52:22.223Z,23.27
2022-09-11T14:54:26.228Z,23.19
2022-09-11T14:56:29.228Z,23.19
2022-09-11T14:58:32.741Z,23.16
2022-09-11T15:00:37.104Z,23.17
2022-09-11T15:02:40.269Z,23.17
2022-09-11T15:04:43.380Z,23.19
2022-09-11T15:06:46.458Z,23.23
2022-09-11T15:08:49.940Z,23.27
2022-09-11T15:10:53.785Z,23.34
2022-09-11T15:12:58.755Z,23.36
2022-09-11T15:15:04.640Z,23.34
2022-09-11T15:17:10.741Z,23.33
2022-09-11T15:19:15.289Z,23.35
2022-09-11T15:21:18.272Z,23.36
2022-09-11T15:23:21.410Z,23.39
2022-09-11T15:25:24.839Z,23.40
2022-09-11T15:27:28.208Z,23.44
2022-09-11T15:29:31.794Z,23.43
2022-09-11T15:31:34.927Z,23.46
2022-09-11T15:33:39.386Z,23.51
2022-09-11T15:35:42.380Z,23.49
2022-09-11T15:37:46.736Z,23.46
2022-09-11T15:39:50.654Z,23.40
2022-09-11T15:41:55.395Z,23.40
2022-09-11T15:43:58.588Z,23.41
2022-09-11T15:46:01.734Z,23.39
2022-09-11T15:48:04.883Z,23.39
2022-09-11T15:50:09.972Z,23.34
2022-09-11T15:52:12.993Z,23.32
2022-09-11T15:54:16.629Z,23.30
2022-09-11T15:56:26.003Z,23.30
2022-09-11T15:58:29.289Z,23.27
2022-09-11T16:00:32.351Z,23.22
2022-09-11T16:02:35.676Z,23.20
2022-09-11T16:04:38.858Z,23.19
2022-09-11T16:06:45.679Z,23.18
2022-09-11T16:08:48.980Z,23.16
2022-09-11T16:10:52.340Z,23.15
2022-09-11T16:12:58.843Z,23.11
2022-09-11T16:15:02.144Z,23.05
2022-09-11T16:17:07.166Z,23.01
2022-09-11T16:19:10.327Z,22.97
2022-09-11T16:21:14.569Z,22.92
2022-09-11T16:23:19.336Z,22.89
2022-09-11T16:25:22.812Z,22.84
2022-09-11T16:27:25.905Z,22.80
2022-09-11T16:29:51.160Z,22.74
2022-09-11T16:31:52.803Z,22.70
2022-09-11T16:33:56.950Z,22.67
2022-09-11T16:36:01.015Z,22.61
2022-09-11T16:38:04.686Z,22.55
2022-09-11T16:40:12.028Z,22.49
2022-09-11T16:42:15.197Z,22.43
2022-09-11T16:44:18.674Z,22.36
2022-09-11T16:46:23.151Z,22.32
2022-09-11T16:48:26.524Z,22.27
2022-09-11T16:50:29.564Z,22.22
2022-09-11T16:52:34.498Z,22.18
2022-09-11T16:54:38.310Z,22.13
2022-09-11T16:56:46.056Z,22.11
2022-09-11T16:58:49.415Z,22.07
2022-09-11T17:00:53.517Z,22.03
2022-09-11T17:02:56.496Z,21.97
2022-09-11T17:04:59.551Z,21.92
2022-09-11T17:07:02.696Z,21.90
2022-09-11T17:09:05.851Z,21.87
2022-09-11T17:11:12.185Z,21.83
2022-09-11T17:13:16.872Z,21.80
2022-09-11T17:15:20.333Z,21.76
2022-09-11T17:17:24.067Z,21.71
2022-09-11T17:19:27.543Z,21.65
2022-09-11T17:21:35.674Z,21.62
2022-09-11T17:23:39.364Z,21.58
2022-09-11T17:25:42.597Z,21.52
2022-09-11T17:27:46.074Z,21.46
2022-09-11T17:29:51.023Z,21.41
2022-09-11T17:32:16.655Z,21.33
2022-09-11T17:34:18.261Z,21.27
2022-09-11T17:36:22.958Z,21.24
2022-09-11T17:38:26.122Z,21.18
2022-09-11T17:40:29.309Z,21.15
2022-09-11T17:42:32.500Z,21.09
2022-09-11T17:44:35.686Z,21.05
2022-09-11T17:46:40.208Z,20.99
2022-09-11T17:48:43.911Z,20.92
2022-09-11T17:50:47.628Z,20.87
2022-09-11T17:52:54.154Z,20.80
2022-09-11T17:54:57.686Z,20.74
2022-09-11T17:57:00.977Z,20.70
2022-09-11T17:59:15.054Z,20.62
2022-09-11T18:01:19.765Z,20.54
2022-09-11T18:03:24.245Z,20.48
2022-09-11T18:05:28.739Z,20.42
2022-09-11T18:07:31.996Z,20.35
2022-09-11T18:09:35.199Z,20.30
2022-09-11T18:11:38.506Z,20.23
2022-09-11T18:13:43.044Z,20.18
2022-09-11T18:15:47.013Z,20.15
2022-09-11T18:17:50.402Z,20.13
2022-09-11T18:19:54.823Z,20.10
2022-09-11T18:21:59.740Z,20.06
2022-09-11T18:24:03.793Z,20.03
2022-09-11T18:26:07.467Z,19.96
2022-09-11T18:28:10.824Z,19.90
2022-09-11T18:30:14.003Z,19.82
2022-09-11T18:32:17.160Z,19.75
2022-09-11T18:34:22.392Z,19.71
2022-09-11T18:36:28.381Z,19.65
2022-09-11T18:38:33.197Z,19.55
2022-09-11T18:40:36.354Z,19.42
2022-09-11T18:42:40.824Z,19.37
2022-09-11T18:44:44.279Z,19.31
2022-09-11T18:46:47.569Z,19.21
2022-09-11T18:48:51.188Z,19.14
2022-09-11T18:50:54.908Z,19.07
2022-09-11T18:53:00.162Z,19.03
2022-09-11T18:55:03.824Z,18.97
2022-09-11T18:57:07.241Z,18.94
2022-09-11T18:59:10.498Z,18.92
2022-09-11T19:01:16.741Z,18.88
2022-09-11T19:03:21.468Z,18.84
2022-09-11T19:05:25.093Z,18.84
2022-09-11T19:07:28.380Z,18.79
2022-09-11T19:09:32.797Z,18.72
2022-09-11T19:11:36.334Z,18.66
2022-09-11T19:13:39.828Z,18.60
2022-09-11T19:15:42.999Z,18.54
2022-09-11T19:17:48.066Z,18.46
2022-09-11T19:19:52.624Z,18.39
2022-09-11T19:21:55.836Z,18.31
2022-09-11T19:24:00.782Z,18.28
2022-09-11T19:26:06.949Z,18.22
2022-09-11T19:28:11.857Z,18.18
2022-09-11T19:30:16.198Z,18.16
2022-09-11T19:32:19.403Z,18.14
2022-09-11T19:34:24.476Z,18.13
2022-09-11T19:36:29.202Z,18.10
2022-09-11T19:38:33.323Z,18.08
2022-09-11T19:40:36.414Z,18.06
2022-09-11T19:42:40.834Z,18.03
2022-09-11T19:44:45.788Z,17.99
2022-09-11T19:46:50.046Z,17.96
2022-09-11T19:48:54.401Z,17.93
2022-09-11T19:50:57.998Z,17.90
2022-09-11T19:53:01.164Z,17.88
2022-09-11T19:55:04.283Z,17.85
2022-09-11T19:57:08.298Z,17.83
2022-09-11T19:59:14.247Z,17.82
2022-09-11T20:01:18.654Z,17.81
2022-09-11T20:03:21.715Z,17.77
2022-09-11T20:05:24.970Z,17.74
2022-09-11T20:07:28.056Z,17.72
2022-09-11T20:09:32.492Z,17.67
2022-09-11T20:11:36.184Z,17.60
2022-09-11T20:13:39.449Z,17.54
2022-09-11T20:15:43.942Z,17.49
2022-09-11T20:17:47.080Z,17.46
2022-09-11T20:19:50.092Z,17.46
2022-09-11T20:21:53.056Z,17.39
2022-09-11T20:23:56.936Z,17.33
2022-09-11T20:26:10.096Z,17.26
2022-09-11T20:28:16.008Z,17.19
2022-09-11T20:30:19.256Z,17.17
2022-09-11T20:32:23.807Z,17.17
2022-09-11T20:34:28.161Z,17.15
2022-09-11T20:36:32.242Z,17.13
2022-09-11T20:38:35.384Z,17.11
2022-09-11T20:40:38.497Z,17.08
2022-09-11T20:42:41.923Z,17.05
2022-09-11T20:44:45.376Z,17.02
2022-09-11T20:46:48.442Z,16.97
2022-09-11T20:48:53.870Z,16.94
2022-09-11T20:50:57.202Z,16.92
2022-09-11T20:53:00.587Z,16.89
2022-09-11T20:55:03.832Z,16.86
2022-09-11T20:57:07.124Z,16.81
2022-09-11T20:59:10.124Z,16.78
2022-09-11T21:01:14.854Z,16.77
2022-09-11T21:03:18.002Z,16.77
2022-09-11T21:05:22.360Z,16.76
2022-09-11T21:07:25.550Z,16.76
2022-09-11T21:09:28.650Z,16.73
2022-09-11T21:11:31.910Z,16.72
2022-09-11T21:13:35.672Z,16.66
2022-09-11T21:15:42.733Z,16.57
2022-09-11T21:17:45.731Z,16.52
2022-09-11T21:19:48.803Z,16.49
2022-09-11T21:21:53.172Z,16.47
2022-09-11T21:23:56.893Z,16.44
2022-09-11T21:25:59.918Z,16.43
2022-09-11T21:28:03.205Z,16.43
2022-09-11T21:30:07.095Z,16.40
2022-09-11T21:32:10.089Z,16.37
2022-09-11T21:34:13.123Z,16.36
2022-09-11T21:36:16.176Z,16.33
2022-09-11T21:38:21.610Z,16.30
2022-09-11T21:40:24.819Z,16.31
2022-09-11T21:42:27.872Z,16.28
2022-09-11T21:44:30.893Z,16.26
2022-09-11T21:46:34.786Z,16.22
2022-09-11T21:48:39.294Z,16.20
2022-09-11T21:50:42.484Z,16.18
2022-09-11T21:52:45.559Z,16.17
2022-09-11T21:54:51.123Z,16.16
2022-09-11T21:56:54.062Z,16.12
2022-09-11T21:58:57.185Z,16.11
2022-09-11T22:01:05.765Z,16.10
2022-09-11T22:03:09.790Z,16.08
2022-09-11T22:05:12.914Z,16.05
2022-09-11T22:07:17.695Z,16.02
2022-09-11T22:09:20.949Z,15.98
2022-09-11T22:11:26.356Z,15.93
2022-09-11T22:13:29.732Z,15.88
2022-09-11T22:15:32.775Z,15.88
2022-09-11T22:17:35.793Z,15.86
2022-09-11T22:19:38.885Z,15.82
2022-09-11T22:21:41.857Z,15.80
2022-09-11T22:23:45.271Z,15.82
2022-09-11T22:25:48.916Z,15.82
2022-09-11T22:27:53.262Z,15.80
2022-09-11T22:29:56.218Z,15.78
2022-09-11T22:31:59.181Z,15.74
2022-09-11T22:34:02.268Z,15.71
2022-09-11T22:36:10.228Z,15.68
2022-09-11T22:38:13.314Z,15.66
2022-09-11T22:40:16.434Z,15.63
2022-09-11T22:42:19.509Z,15.63
2022-09-11T22:44:23.828Z,15.62
2022-09-11T22:46:27.616Z,15.62
2022-09-11T22:48:30.567Z,15.60
2022-09-11T22:50:34.537Z,15.59
2022-09-11T22:52:38.494Z,15.57
2022-09-11T22:54:41.499Z,15.54
2022-09-11T22:56:44.568Z,15.52
2022-09-11T22:58:47.638Z,15.51
2022-09-11T23:00:52.841Z,15.50
2022-09-11T23:02:55.889Z,15.45
2022-09-11T23:05:24.927Z,15.40
2022-09-11T23:07:27.959Z,15.34
2022-09-11T23:09:30.892Z,15.31
2022-09-11T23:11:33.918Z,15.31
2022-09-11T23:13:37.669Z,15.29
2022-09-11T23:15:40.845Z,15.26
2022-09-11T23:17:45.186Z,15.24
2022-09-11T23:19:48.762Z,15.22
2022-09-11T23:21:52.109Z,15.21
2022-09-11T23:23:57.091Z,15.20
2022-09-11T23:26:00.101Z,15.17
2022-09-11T23:28:03.279Z,15.13
2022-09-11T23:30:07.075Z,15.08
2022-09-11T23:32:10.083Z,15.04
2022-09-11T23:34:17.278Z,15.02
2022-09-11T23:36:20.184Z,15.01
2022-09-11T23:38:23.131Z,15.01
2022-09-11T23:40:28.310Z,14.98
2022-09-11T23:42:34.384Z,14.99
2022-09-11T23:44:37.375Z,15.01
2022-09-11T23:46:40.378Z,14.98
2022-09-11T23:48:43.411Z,14.97
2022-09-11T23:50:47.849Z,14.97
2022-09-11T23:52:50.785Z,14.95
2022-09-11T23:54:54.109Z,14.94
2022-09-11T23:56:57.131Z,14.91
2022-09-11T23:59:00.131Z,14.89
